Time;durP1;ratioP1;P1;durP2;ratioP2;P2;SDS_P1;SDS_P2;PMS_P1;PMS_P2;Temp;Humidity;BMP_temperature;BMP_pressure;BME280_temperature;BME280_humidity;BME280_pressure;Samples;Min_cycle;Max_cycle;Signal;HPM_P1;HPM_P2
2022/06/20 00:02:26;;;;;;;4.77;2.30;;;14.80;99.90;;;;;;5094349;28;20205;-45
2022/06/20 00:04:54;;;;;;;3.80;1.73;;;14.80;99.90;;;;;;5093818;28;20198;-44
2022/06/20 00:07:21;;;;;;;8.97;2.13;;;14.80;99.90;;;;;;5076614;28;20197;-42
2022/06/20 00:09:47;;;;;;;4.27;2.03;;;14.80;99.90;;;;;;5094596;28;20194;-42
2022/06/20 00:12:18;;;;;;;7.50;1.97;;;14.80;99.90;;;;;;5094153;28;20643;-42
2022/06/20 00:14:45;;;;;;;3.50;1.70;;;14.80;99.90;;;;;;5094293;28;20171;-44
2022/06/20 00:17:13;;;;;;;5.90;1.67;;;14.80;99.90;;;;;;5094403;28;20201;-43
2022/06/20 00:19:40;;;;;;;4.40;1.93;;;14.80;99.90;;;;;;5094344;28;20203;-46
2022/06/20 00:22:06;;;;;;;7.60;2.03;;;14.80;99.90;;;;;;5094251;28;20206;-46
2022/06/20 00:24:31;;;;;;;3.83;1.67;;;14.80;99.90;;;;;;5093945;28;20209;-46
2022/06/20 00:26:57;;;;;;;5.00;2.03;;;14.80;99.90;;;;;;5094299;28;20171;-45
2022/06/20 00:29:23;;;;;;;4.97;1.80;;;14.80;99.90;;;;;;5094018;28;20243;-44
2022/06/20 00:31:48;;;;;;;4.63;1.90;;;14.80;99.90;;;;;;5094216;28;20183;-45
2022/06/20 00:34:14;;;;;;;4.30;1.70;;;14.80;99.90;;;;;;5094411;28;20186;-45
2022/06/20 00:36:40;;;;;;;1.80;1.40;;;14.80;99.90;;;;;;5094106;28;20175;-46
2022/06/20 00:39:06;;;;;;;4.70;2.00;;;14.80;99.90;;;;;;5093652;28;20210;-46
2022/06/20 00:41:34;;;;;;;5.33;2.20;;;14.80;99.90;;;;;;5093724;28;20203;-47
2022/06/20 00:44:01;;;;;;;3.87;2.00;;;14.80;99.90;;;;;;5075555;28;20263;-44
2022/06/20 00:46:45;;;;;;;8.13;2.27;;;14.80;99.90;;;;;;5094030;28;20257;-47
2022/06/20 00:49:22;;;;;;;6.73;2.23;;;14.80;99.90;;;;;;5093878;28;20634;-47
2022/06/20 00:51:58;;;;;;;4.03;2.30;;;14.80;99.90;;;;;;5093950;28;20255;-46
2022/06/20 00:54:32;;;;;;;5.53;2.17;;;14.80;99.90;;;;;;5093865;28;20166;-45
2022/06/20 00:57:13;;;;;;;5.03;2.10;;;14.80;99.90;;;;;;5094064;28;20202;-45
2022/06/20 00:59:44;;;;;;;3.33;2.10;;;14.80;99.90;;;;;;5093327;28;20318;-45
2022/06/20 01:02:12;;;;;;;6.47;1.90;;;14.80;99.90;;;;;;5075448;28;20202;-45
2022/06/20 01:04:50;;;;;;;4.93;2.13;;;14.80;99.90;;;;;;5093701;28;20167;-45
2022/06/20 01:07:23;;;;;;;6.10;2.13;;;14.80;99.90;;;;;;5093463;28;20152;-45
2022/06/20 01:09:53;;;;;;;5.70;2.53;;;14.80;99.90;;;;;;5075333;28;20201;-45
2022/06/20 01:12:23;;;;;;;4.13;2.20;;;14.70;99.90;;;;;;5093407;28;20645;-47
2022/06/20 01:14:49;;;;;;;7.87;2.30;;;14.60;99.90;;;;;;5093724;28;20246;-46
2022/06/20 01:17:35;;;;;;;5.27;2.60;;;14.60;99.90;;;;;;5093821;28;20673;-46
2022/06/20 01:20:22;;;;;;;4.20;1.90;;;14.50;99.90;;;;;;5093603;28;20201;-46
2022/06/20 01:22:47;;;;;;;3.97;1.97;;;14.40;99.90;;;;;;5093786;28;20206;-46
2022/06/20 01:25:27;;;;;;;6.13;2.33;;;14.40;99.90;;;;;;5093639;28;20258;-46
2022/06/20 01:27:53;;;;;;;5.90;2.60;;;14.30;99.90;;;;;;5093455;28;20170;-45
2022/06/20 01:30:23;;;;;;;6.70;2.43;;;14.30;99.90;;;;;;5093727;28;20533;-45
2022/06/20 01:32:49;;;;;;;3.87;2.30;;;14.20;99.90;;;;;;5093735;28;20189;-47
2022/06/20 01:38:02;;;;;;;5.10;2.10;;;14.00;99.90;;;;;;5093595;28;20174;-46
2022/06/20 01:40:29;;;;;;;4.90;2.00;;;14.00;99.90;;;;;;5075278;28;20175;-45
2022/06/20 01:42:55;;;;;;;8.50;2.90;;;14.00;99.90;;;;;;5094272;28;20543;-47
2022/06/20 01:48:11;;;;;;;4.23;2.50;;;14.00;99.90;;;;;;5094740;28;20569;-45
2022/06/20 01:50:37;;;;;;;4.90;2.80;;;14.00;99.90;;;;;;5093472;28;20171;-45
2022/06/20 01:53:06;;;;;;;6.23;3.07;;;14.00;99.90;;;;;;5093354;28;20179;-46
2022/06/20 01:55:33;;;;;;;5.03;2.80;;;13.90;99.90;;;;;;5093087;28;20227;-45
2022/06/20 01:58:10;;;;;;;5.17;2.63;;;13.80;99.90;;;;;;5092803;28;20179;-46
2022/06/20 02:00:36;;;;;;;6.43;2.97;;;13.80;99.90;;;;;;5092909;28;20269;-46
2022/06/20 02:03:08;;;;;;;4.43;3.10;;;13.70;99.90;;;;;;5092806;28;20205;-47
2022/06/20 02:05:34;;;;;;;6.03;3.93;;;13.60;99.90;;;;;;5092637;28;20175;-46
2022/06/20 02:08:04;;;;;;;5.73;3.30;;;13.50;99.90;;;;;;5092827;28;20758;-46
2022/06/20 02:10:59;;;;;;;5.63;3.30;;;13.50;99.90;;;;;;5092841;28;20183;-46
2022/06/20 02:13:28;;;;;;;12.93;3.37;;;13.40;99.90;;;;;;5081517;28;20192;-45
2022/06/20 02:15:59;;;;;;;7.17;4.07;;;13.40;99.90;;;;;;5092820;28;20543;-46
2022/06/20 02:18:29;;;;;;;10.17;4.20;;;13.30;99.90;;;;;;5093206;28;20195;-45
2022/06/20 02:20:59;;;;;;;7.53;3.67;;;13.30;99.90;;;;;;5095608;28;20307;-44
2022/06/20 02:23:31;;;;;;;6.77;3.47;;;13.20;99.90;;;;;;5096355;28;20739;-45
2022/06/20 02:25:58;;;;;;;6.67;4.10;;;13.20;99.90;;;;;;5096642;28;20155;-44
2022/06/20 02:28:37;;;;;;;4.90;3.07;;;13.20;99.90;;;;;;5096395;28;20273;-45
2022/06/20 02:31:05;;;;;;;10.90;3.73;;;13.20;99.90;;;;;;5096526;28;20604;-44
2022/06/20 02:33:31;;;;;;;5.70;4.00;;;13.20;99.90;;;;;;5077977;28;20270;-45
2022/06/20 02:35:59;;;;;;;6.97;3.93;;;13.20;99.90;;;;;;5096478;28;20201;-47
2022/06/20 02:38:25;;;;;;;6.53;4.03;;;13.20;99.90;;;;;;5095974;28;20195;-45
2022/06/20 02:40:52;;;;;;;4.17;3.57;;;13.20;99.90;;;;;;5096044;28;20519;-44
2022/06/20 02:43:23;;;;;;;6.73;3.30;;;13.20;99.90;;;;;;5096154;28;20289;-44
2022/06/20 02:45:51;;;;;;;4.90;3.20;;;13.20;99.90;;;;;;5095990;28;20163;-46
2022/06/20 02:48:18;;;;;;;8.73;3.33;;;13.20;99.90;;;;;;5095823;28;20723;-45
2022/06/20 02:50:50;;;;;;;5.77;2.70;;;13.20;99.90;;;;;;5096106;28;20221;-47
2022/06/20 02:53:24;;;;;;;5.20;3.23;;;13.20;99.90;;;;;;5095821;28;20159;-45
2022/06/20 02:55:51;;;;;;;3.60;2.90;;;13.10;99.90;;;;;;5096090;28;20158;-44
2022/06/20 02:58:25;;;;;;;5.37;2.80;;;13.20;99.90;;;;;;5095467;28;20214;-45
2022/06/20 03:01:28;;;;;;;6.30;2.90;;;13.20;99.90;;;;;;5096225;28;20631;-47
2022/06/20 03:03:57;;;;;;;3.50;2.20;;;13.10;99.90;;;;;;5077684;28;20600;-43
2022/06/20 03:06:47;;;;;;;7.73;2.53;;;13.10;99.90;;;;;;5095667;28;20177;-45
2022/06/20 03:09:15;;;;;;;5.13;2.60;;;13.10;99.90;;;;;;5095642;28;20201;-47
2022/06/20 03:11:41;;;;;;;4.17;3.03;;;13.10;99.90;;;;;;5096090;28;20171;-45
2022/06/20 03:14:12;;;;;;;7.93;2.67;;;13.00;99.90;;;;;;5095351;28;20185;-45
2022/06/20 03:16:39;;;;;;;5.03;2.30;;;13.00;99.90;;;;;;5095427;28;20155;-47
2022/06/20 03:19:07;;;;;;;8.20;2.83;;;13.00;99.90;;;;;;5095454;28;20183;-46
2022/06/20 03:21:38;;;;;;;6.10;2.47;;;12.90;99.90;;;;;;5077188;28;20206;-45
2022/06/20 03:24:04;;;;;;;3.80;2.13;;;12.90;99.90;;;;;;5095994;28;20212;-44
2022/06/20 03:26:31;;;;;;;5.90;2.27;;;12.90;99.90;;;;;;5095325;28;20178;-45
2022/06/20 03:28:56;;;;;;;5.53;2.30;;;12.80;99.90;;;;;;5077081;28;20203;-46
2022/06/20 03:31:22;;;;;;;7.20;2.40;;;12.80;99.90;;;;;;5076032;28;20287;-44
2022/06/20 03:33:48;;;;;;;4.63;2.57;;;12.80;99.90;;;;;;5095624;28;20285;-46
2022/06/20 03:36:26;;;;;;;7.60;2.30;;;12.80;99.90;;;;;;5095187;28;20642;-42
2022/06/20 03:38:52;;;;;;;5.07;1.90;;;12.80;99.90;;;;;;5095088;28;20205;-45
2022/06/20 03:41:26;;;;;;;5.13;2.03;;;12.80;99.90;;;;;;5095030;28;20170;-47
2022/06/20 03:44:07;;;;;;;4.83;1.73;;;12.80;99.90;;;;;;5094848;28;20163;-44
2022/06/20 03:46:44;;;;;;;5.07;1.97;;;12.80;99.90;;;;;;5095351;28;20512;-46
2022/06/20 03:49:26;;;;;;;4.43;1.70;;;12.90;99.90;;;;;;5095209;28;20221;-44
2022/06/20 03:51:57;;;;;;;6.30;2.17;;;12.90;99.90;;;;;;5094619;28;20643;-45
2022/06/20 03:54:40;;;;;;;5.40;2.10;;;13.00;99.90;;;;;;5094882;28;20167;-45
2022/06/20 03:57:32;;;;;;;6.23;1.77;;;13.00;99.90;;;;;;5094923;28;20166;-45
2022/06/20 04:00:11;;;;;;;6.93;2.43;;;13.00;99.90;;;;;;5076300;28;20219;-43
2022/06/20 04:02:55;;;;;;;3.67;2.10;;;13.10;99.90;;;;;;5094558;28;20202;-45
2022/06/20 04:05:31;;;;;;;4.73;2.23;;;13.10;99.90;;;;;;5094694;28;20166;-45
2022/06/20 04:08:14;;;;;;;4.40;1.97;;;13.10;99.90;;;;;;5094325;28;20155;-45
2022/06/20 04:10:57;;;;;;;5.40;2.13;;;13.10;99.90;;;;;;5076215;28;20163;-45
2022/06/20 04:13:51;;;;;;;3.20;1.90;;;13.10;99.90;;;;;;5094354;28;20579;-43
2022/06/20 04:16:31;;;;;;;5.13;1.97;;;13.10;99.90;;;;;;5094142;28;20514;-46
2022/06/20 04:19:26;;;;;;;8.17;1.93;;;13.10;99.90;;;;;;5094046;28;20698;-46
2022/06/20 04:21:53;;;;;;;6.27;2.03;;;13.20;99.90;;;;;;5067669;28;20674;-46
2022/06/20 04:24:21;;;;;;;6.23;2.03;;;13.20;99.90;;;;;;5094289;28;20183;-44
2022/06/20 04:26:57;;;;;;;5.20;2.13;;;13.20;99.90;;;;;;5094584;28;20695;-44
2022/06/20 04:29:41;;;;;;;5.63;2.07;;;13.20;99.90;;;;;;5094075;28;20190;-46
2022/06/20 04:32:18;;;;;;;5.57;1.83;;;13.20;99.90;;;;;;5094289;28;20160;-45
2022/06/20 04:34:54;;;;;;;4.83;1.90;;;13.20;99.90;;;;;;5094179;28;20587;-46
2022/06/20 04:37:35;;;;;;;4.10;1.83;;;13.20;99.90;;;;;;5094073;28;20171;-46
2022/06/20 04:40:19;;;;;;;2.57;1.67;;;13.20;99.90;;;;;;5094148;28;20210;-46
2022/06/20 04:42:51;;;;;;;5.97;1.70;;;13.20;99.90;;;;;;5093577;28;20195;-45
2022/06/20 04:45:54;;;;;;;5.43;1.87;;;13.20;99.90;;;;;;5076391;28;20213;-47
2022/06/20 04:48:23;;;;;;;5.83;2.20;;;13.20;99.90;;;;;;5094059;28;20248;-45
2022/06/20 04:51:00;;;;;;;4.17;2.03;;;13.10;99.90;;;;;;5093738;28;20174;-46
2022/06/20 04:53:29;;;;;;;6.30;1.80;;;13.20;99.90;;;;;;5093761;28;20189;-44
2022/06/20 04:55:57;;;;;;;5.43;2.10;;;13.20;99.90;;;;;;5093700;28;20212;-45
2022/06/20 04:58:29;;;;;;;5.20;2.43;;;13.30;99.90;;;;;;5093158;28;20248;-45
2022/06/20 05:00:57;;;;;;;6.90;2.07;;;13.20;99.90;;;;;;5093706;28;20178;-45
2022/06/20 05:03:27;;;;;;;5.53;2.17;;;13.20;99.90;;;;;;5094095;28;20327;-45
2022/06/20 05:05:56;;;;;;;5.30;2.10;;;13.20;99.90;;;;;;5093661;28;20163;-43
2022/06/20 05:08:29;;;;;;;5.80;2.37;;;13.20;99.90;;;;;;5093316;28;20274;-45
2022/06/20 05:11:02;;;;;;;5.33;2.33;;;13.20;99.90;;;;;;5075516;28;20618;-46
2022/06/20 05:13:47;;;;;;;7.40;2.80;;;13.20;99.90;;;;;;5093456;28;20207;-45
2022/06/20 05:16:24;;;;;;;6.10;2.10;;;13.10;99.90;;;;;;5075179;28;20179;-45
2022/06/20 05:18:57;;;;;;;7.07;2.83;;;13.20;99.90;;;;;;5093672;28;20216;-45
2022/06/20 05:21:29;;;;;;;7.20;2.30;;;13.10;99.90;;;;;;5093730;28;20615;-44
2022/06/20 05:23:58;;;;;;;7.47;2.10;;;13.10;99.90;;;;;;5093507;28;20155;-43
2022/06/20 05:26:29;;;;;;;5.63;1.97;;;13.20;99.90;;;;;;5076183;28;20179;-45
2022/06/20 05:28:57;;;;;;;7.47;2.80;;;13.10;99.90;;;;;;5074980;28;20690;-47
2022/06/20 05:31:49;;;;;;;6.60;2.33;;;13.10;99.90;;;;;;5075593;28;20231;-44
2022/06/20 05:34:52;;;;;;;8.30;2.57;;;13.10;99.90;;;;;;5093581;28;20281;-45
2022/06/20 05:38:03;;;;;;;5.73;2.37;;;13.10;99.90;;;;;;5041162;28;20187;-45
2022/06/20 05:40:41;;;;;;;4.23;2.30;;;13.10;99.90;;;;;;4992282;28;20190;-46
2022/06/20 05:43:21;;;;;;;8.53;2.40;;;13.10;99.90;;;;;;5088400;28;20214;-44
2022/06/20 05:46:12;;;;;;;8.30;2.73;;;13.10;99.90;;;;;;5093139;28;20151;-45
2022/06/20 05:48:44;;;;;;;11.60;2.50;;;13.10;99.90;;;;;;5093410;28;20281;-44
2022/06/20 05:51:14;;;;;;;4.60;1.83;;;13.10;99.90;;;;;;5093000;28;20620;-45
2022/06/20 05:53:48;;;;;;;5.33;2.40;;;13.10;99.90;;;;;;5074883;28;20266;-44
2022/06/20 05:56:24;;;;;;;9.30;2.80;;;13.10;99.90;;;;;;5097077;28;20163;-44
2022/06/20 05:58:52;;;;;;;7.00;2.17;;;13.00;99.90;;;;;;5097026;28;20297;-43
2022/06/20 06:01:22;;;;;;;8.37;2.90;;;13.10;99.90;;;;;;5097326;28;20179;-42
2022/06/20 06:03:57;;;;;;;11.33;3.10;;;13.00;99.90;;;;;;5096984;28;20238;-38
2022/06/20 06:06:45;;;;;;;9.40;3.43;;;13.10;99.90;;;;;;5097071;28;20155;-41
2022/06/20 06:09:25;;;;;;;10.67;2.83;;;13.10;99.90;;;;;;5096580;28;20230;-40
2022/06/20 06:12:03;;;;;;;8.03;2.80;;;13.10;99.90;;;;;;5097504;28;20155;-40
2022/06/20 06:14:41;;;;;;;9.27;2.60;;;13.10;99.90;;;;;;5096690;28;20178;-41
2022/06/20 06:17:25;;;;;;;8.87;2.50;;;13.00;99.90;;;;;;5078748;28;20202;-40
2022/06/20 06:19:57;;;;;;;6.17;2.00;;;13.00;99.90;;;;;;5096453;28;20195;-41
2022/06/20 06:22:34;;;;;;;8.97;2.77;;;13.10;99.90;;;;;;5096316;28;20666;-39
2022/06/20 06:25:05;;;;;;;8.57;2.57;;;13.10;99.90;;;;;;5096654;28;20163;-40
2022/06/20 06:27:34;;;;;;;6.87;2.53;;;13.10;99.90;;;;;;5096578;28;20659;-39
2022/06/20 06:30:03;;;;;;;8.50;2.33;;;13.10;99.90;;;;;;5078178;28;20198;-39
2022/06/20 06:32:38;;;;;;;5.73;2.47;;;13.10;99.90;;;;;;5096442;28;20194;-39
2022/06/20 06:35:07;;;;;;;9.70;2.60;;;13.20;99.90;;;;;;5096466;28;20170;-40
2022/06/20 06:38:00;;;;;;;9.87;2.83;;;13.20;99.90;;;;;;5096598;28;20681;-40
2022/06/20 06:40:32;;;;;;;12.07;2.57;;;13.30;99.90;;;;;;5078730;28;20195;-40
2022/06/20 06:42:59;;;;;;;7.10;2.40;;;13.30;99.90;;;;;;5096347;28;20195;-38
2022/06/20 06:45:28;;;;;;;6.53;2.33;;;13.20;99.90;;;;;;5095949;28;20179;-40
2022/06/20 06:48:00;;;;;;;8.70;2.30;;;13.30;99.90;;;;;;5095923;28;20179;-39
2022/06/20 06:50:51;;;;;;;5.57;2.13;;;13.30;99.90;;;;;;5096224;28;20213;-39
2022/06/20 06:53:33;;;;;;;8.80;2.17;;;13.40;99.90;;;;;;5095850;28;20692;-40
2022/06/20 06:56:22;;;;;;;7.93;2.07;;;13.40;99.90;;;;;;5096016;28;20542;-38
2022/06/20 06:59:06;;;;;;;10.47;2.60;;;13.40;99.90;;;;;;5095698;28;20624;-37
2022/06/20 07:01:41;;;;;;;9.00;2.30;;;13.50;99.90;;;;;;5077246;28;20236;-40
2022/06/20 07:04:18;;;;;;;6.47;2.17;;;13.50;99.90;;;;;;5095582;28;20166;-39
2022/06/20 07:06:58;;;;;;;7.90;1.80;;;13.50;99.90;;;;;;5095552;28;20178;-40
2022/06/20 07:09:35;;;;;;;10.90;2.03;;;13.50;99.90;;;;;;5095718;28;20201;-42
2022/06/20 07:12:07;;;;;;;7.77;1.80;;;13.50;99.90;;;;;;5095765;28;20171;-39
2022/06/20 07:14:41;;;;;;;6.10;1.50;;;13.50;99.90;;;;;;5095820;28;20216;-39
2022/06/20 07:17:19;;;;;;;6.20;2.20;;;13.40;99.90;;;;;;5095916;28;20178;-39
2022/06/20 07:19:48;;;;;;;6.63;2.00;;;13.50;99.90;;;;;;5095643;28;20248;-40
2022/06/20 07:22:15;;;;;;;9.63;1.70;;;13.40;99.90;;;;;;5095197;28;20207;-42
2022/06/20 07:24:43;;;;;;;8.13;1.60;;;13.40;99.90;;;;;;5095282;28;20175;-40
2022/06/20 07:27:20;;;;;;;6.47;1.50;;;13.40;99.90;;;;;;5095949;28;20653;-39
2022/06/20 07:30:13;;;;;;;8.37;1.50;;;13.40;99.90;;;;;;5095139;28;20204;-38
2022/06/20 07:33:04;;;;;;;7.03;1.13;;;13.50;99.90;;;;;;5094956;28;20186;-40
2022/06/20 07:35:48;;;;;;;8.77;1.30;;;13.50;99.90;;;;;;5095100;28;20213;-39
2022/06/20 07:38:31;;;;;;;5.30;1.20;;;13.60;99.90;;;;;;5095050;28;20198;-40
2022/06/20 07:41:08;;;;;;;6.00;1.43;;;13.60;99.90;;;;;;5095271;28;20163;-40
2022/06/20 07:43:40;;;;;;;7.93;1.50;;;13.70;99.90;;;;;;5094961;28;20202;-40
2022/06/20 07:46:37;;;;;;;5.03;1.47;;;13.70;99.90;;;;;;5095086;28;20257;-40
2022/06/20 07:49:09;;;;;;;8.47;2.20;;;13.80;99.90;;;;;;5093989;28;20210;-41
2022/06/20 07:51:40;;;;;;;6.20;1.27;;;13.90;99.90;;;;;;5094935;28;20162;-42
2022/06/20 07:54:32;;;;;;;7.80;1.40;;;14.00;99.90;;;;;;5095118;28;20596;-41
2022/06/20 07:57:07;;;;;;;7.93;1.50;;;14.10;99.90;;;;;;5083720;28;20195;-40
2022/06/20 07:59:42;;;;;;;9.90;1.97;;;14.10;99.90;;;;;;5094258;28;20221;-42
2022/06/20 08:02:54;;;;;;;6.03;1.70;;;14.10;99.90;;;;;;5094385;28;20199;-42
2022/06/20 08:05:34;;;;;;;5.73;1.90;;;14.20;99.90;;;;;;5094002;28;20195;-40
2022/06/20 08:08:37;;;;;;;6.80;2.07;;;14.50;99.90;;;;;;5076484;28;20167;-40
2022/06/20 08:11:08;;;;;;;8.67;2.40;;;14.70;99.90;;;;;;5076339;28;20197;-42
2022/06/20 08:13:48;;;;;;;7.33;2.40;;;14.70;99.90;;;;;;5094505;28;20167;-42
2022/06/20 08:16:18;;;;;;;8.13;2.70;;;14.80;99.90;;;;;;5094774;28;20523;-39
2022/06/20 08:18:44;;;;;;;8.70;2.00;;;14.80;99.90;;;;;;5076366;28;20248;-38
2022/06/20 08:21:21;;;;;;;7.20;2.33;;;15.00;99.90;;;;;;5094627;28;20207;-41
2022/06/20 08:23:55;;;;;;;4.60;1.40;;;15.10;99.90;;;;;;5094621;28;20197;-40
2022/06/20 08:26:41;;;;;;;7.27;1.60;;;15.30;99.90;;;;;;5094744;28;20167;-39
2022/06/20 08:29:13;;;;;;;7.40;1.80;;;15.50;99.90;;;;;;5094082;28;20700;-41
2022/06/20 08:31:52;;;;;;;3.90;1.50;;;15.80;99.90;;;;;;5093980;28;20171;-41
2022/06/20 08:34:31;;;;;;;3.60;1.90;;;16.10;99.90;;;;;;5094389;28;20177;-42
2022/06/20 08:37:14;;;;;;;7.57;1.80;;;16.30;99.90;;;;;;5094115;28;20627;-40
2022/06/20 08:40:12;;;;;;;4.30;2.03;;;16.30;99.90;;;;;;5094200;28;20195;-37
2022/06/20 08:43:01;;;;;;;4.10;1.70;;;16.40;99.90;;;;;;5080511;28;20321;-40
2022/06/20 08:46:08;;;;;;;8.10;2.30;;;16.50;99.90;;;;;;5094321;28;20558;-41
2022/06/20 08:48:50;;;;;;;5.57;1.90;;;16.40;99.90;;;;;;5094403;28;20684;-38
2022/06/20 08:51:21;;;;;;;6.30;2.30;;;16.40;99.90;;;;;;5075719;28;20174;-41
2022/06/20 08:54:21;;;;;;;5.90;1.97;;;16.40;99.90;;;;;;5093587;28;20311;-40
2022/06/20 08:57:19;;;;;;;6.60;2.07;;;16.50;99.90;;;;;;5075931;28;20167;-40
2022/06/20 09:00:09;;;;;;;4.60;1.97;;;16.40;99.90;;;;;;5071627;28;20330;-39
2022/06/20 09:02:59;;;;;;;2.70;1.40;;;16.40;99.90;;;;;;5094126;28;20219;-40
2022/06/20 09:05:50;;;;;;;3.33;1.37;;;16.50;99.90;;;;;;5093651;28;20162;-40
2022/06/20 09:08:23;;;;;;;7.00;2.23;;;16.70;99.90;;;;;;5093941;28;20207;-39
2022/06/20 09:11:18;;;;;;;4.00;1.30;;;16.90;99.90;;;;;;5075435;28;20171;-40
2022/06/20 09:14:24;;;;;;;7.77;1.90;;;17.00;99.90;;;;;;5093525;28;20626;-39
2022/06/20 09:16:53;;;;;;;7.90;1.57;;;17.10;99.90;;;;;;5092088;28;20186;-39
2022/06/20 09:19:34;;;;;;;7.20;1.90;;;17.20;99.90;;;;;;5093252;28;20207;-40
2022/06/20 09:22:40;;;;;;;4.53;1.60;;;17.50;99.90;;;;;;5093494;28;20202;-39
2022/06/20 09:25:36;;;;;;;4.83;1.70;;;17.50;99.90;;;;;;5093954;28;20159;-40
2022/06/20 09:28:37;;;;;;;5.20;1.50;;;17.70;99.90;;;;;;5093199;28;20167;-39
2022/06/20 09:31:18;;;;;;;5.57;1.63;;;17.90;99.90;;;;;;5077700;28;20191;-43
2022/06/20 09:33:54;;;;;;;7.70;1.73;;;18.20;99.90;;;;;;5097309;28;20178;-41
2022/06/20 09:37:05;;;;;;;6.37;1.70;;;18.30;99.90;;;;;;5097670;28;20171;-43
2022/06/20 09:39:38;;;;;;;5.93;1.60;;;18.20;99.90;;;;;;5063621;28;20210;-40
2022/06/20 09:42:33;;;;;;;7.83;1.60;;;18.00;99.90;;;;;;5079372;28;20183;-41
2022/06/20 09:45:27;;;;;;;3.17;1.23;;;17.80;99.90;;;;;;5097687;28;20216;-38
2022/06/20 09:48:31;;;;;;;3.97;1.57;;;17.90;99.90;;;;;;5058476;28;20191;-40
2022/06/20 09:51:14;;;;;;;7.23;2.40;;;18.10;99.90;;;;;;5076147;28;20199;-40
2022/06/20 09:54:05;;;;;;;4.10;1.43;;;18.30;99.90;;;;;;5097159;28;20538;-42
2022/06/20 09:57:09;;;;;;;3.57;1.33;;;18.40;99.90;;;;;;5097036;28;20258;-38
2022/06/20 09:59:43;;;;;;;4.00;1.00;;;18.30;99.90;;;;;;5079011;28;20354;-41
2022/06/20 10:02:16;;;;;;;9.53;1.57;;;18.40;99.90;;;;;;5097011;28;20186;-41
2022/06/20 10:04:54;;;;;;;4.50;1.23;;;18.40;99.90;;;;;;5097294;28;20175;-41
2022/06/20 10:07:44;;;;;;;5.63;1.30;;;18.50;99.90;;;;;;5096634;28;20163;-39
2022/06/20 10:10:30;;;;;;;2.07;1.13;;;18.70;99.90;;;;;;5096616;28;20241;-42
2022/06/20 10:13:37;;;;;;;2.77;1.17;;;18.90;99.90;;;;;;5096841;28;20272;-42
2022/06/20 10:16:20;;;;;;;3.27;1.30;;;19.00;99.90;;;;;;5097343;28;20638;-39
2022/06/20 10:19:21;;;;;;;2.27;1.10;;;19.20;99.90;;;;;;5096713;28;20190;-42
2022/06/20 10:22:20;;;;;;;7.67;1.30;;;19.40;99.90;;;;;;5096482;28;20669;-41
2022/06/20 10:25:13;;;;;;;2.03;1.37;;;19.50;99.90;;;;;;5096698;28;20159;-39
2022/06/20 10:27:45;;;;;;;4.17;1.60;;;19.60;99.90;;;;;;5096668;28;20167;-41
2022/06/20 10:30:19;;;;;;;4.53;1.40;;;19.40;99.90;;;;;;5096380;28;20198;-42
2022/06/20 10:33:09;;;;;;;6.17;1.43;;;19.20;99.90;;;;;;5097154;28;20519;-42
2022/06/20 10:35:50;;;;;;;6.17;1.23;;;18.90;99.90;;;;;;5096621;28;20189;-41
2022/06/20 10:38:40;;;;;;;4.07;1.30;;;18.80;99.90;;;;;;5096282;28;20684;-40
2022/06/20 10:41:11;;;;;;;6.03;1.63;;;19.10;99.90;;;;;;5095591;28;20631;-42
2022/06/20 10:43:45;;;;;;;3.93;1.43;;;19.30;99.90;;;;;;5096298;28;20183;-42
2022/06/20 10:46:12;;;;;;;2.90;1.20;;;19.50;99.90;;;;;;5096222;28;20231;-40
2022/06/20 10:49:20;;;;;;;5.17;1.27;;;19.60;99.90;;;;;;5095955;28;20214;-41
2022/06/20 10:52:04;;;;;;;4.27;1.23;;;19.70;99.90;;;;;;5096102;28;20163;-40
2022/06/20 10:55:21;;;;;;;5.60;1.60;;;19.90;99.90;;;;;;5096207;28;20254;-42
2022/06/20 10:58:05;;;;;;;2.63;1.30;;;20.10;99.90;;;;;;5078396;28;20734;-41
2022/06/20 11:00:38;;;;;;;7.50;1.93;;;20.20;99.90;;;;;;5096346;28;20167;-42
2022/06/20 11:03:29;;;;;;;6.30;1.30;;;20.10;99.90;;;;;;5095874;28;20198;-42
2022/06/20 11:06:11;;;;;;;3.73;1.30;;;20.20;99.90;;;;;;5095765;28;20191;-40
2022/06/20 11:08:54;;;;;;;4.57;1.77;;;20.30;99.90;;;;;;5095940;28;20197;-42
2022/06/20 11:11:40;;;;;;;4.80;1.30;;;20.40;99.90;;;;;;5096038;28;20155;-43
2022/06/20 11:14:14;;;;;;;3.30;1.40;;;20.40;99.90;;;;;;5095500;28;20174;-43
2022/06/20 11:17:17;;;;;;;4.03;1.20;;;20.30;99.90;;;;;;5096911;28;20158;-42
2022/06/20 11:20:03;;;;;;;5.13;1.27;;;20.20;99.90;;;;;;5096484;28;20210;-43
2022/06/20 11:22:38;;;;;;;3.97;1.20;;;20.20;99.90;;;;;;5043973;28;20213;-44
2022/06/20 11:25:22;;;;;;;5.47;1.70;;;20.20;99.90;;;;;;5095801;28;20166;-42
2022/06/20 11:27:54;;;;;;;2.73;1.40;;;20.10;99.90;;;;;;5095684;28;20183;-42
2022/06/20 11:30:25;;;;;;;4.37;1.37;;;20.20;99.90;;;;;;5095257;28;20178;-39
2022/06/20 11:33:12;;;;;;;3.70;1.50;;;20.30;99.90;;;;;;5077054;28;20167;-42
2022/06/20 11:36:10;;;;;;;3.77;1.43;;;20.50;99.90;;;;;;5095309;28;20216;-41
2022/06/20 11:38:52;;;;;;;3.33;1.43;;;20.80;99.90;;;;;;5095346;28;20234;-42
2022/06/20 11:41:31;;;;;;;4.37;1.17;;;20.90;99.90;;;;;;5095101;28;20163;-43
2022/06/20 11:44:18;;;;;;;3.63;1.20;;;21.10;99.90;;;;;;5095142;28;20174;-43
2022/06/20 11:47:14;;;;;;;5.67;1.67;;;21.20;99.90;;;;;;5095375;28;20194;-42
2022/06/20 11:50:00;;;;;;;3.33;1.60;;;21.30;99.90;;;;;;5095060;28;20194;-44
2022/06/20 11:52:44;;;;;;;6.13;1.47;;;21.10;99.90;;;;;;5094211;28;20163;-43
2022/06/20 11:55:33;;;;;;;3.30;1.93;;;20.80;99.90;;;;;;5095303;28;20258;-43
2022/06/20 11:58:10;;;;;;;4.20;1.33;;;20.80;99.90;;;;;;5094701;28;20304;-41
2022/06/20 12:00:48;;;;;;;4.97;1.80;;;21.10;99.90;;;;;;5094729;28;20179;-43
2022/06/20 12:03:25;;;;;;;3.30;1.60;;;21.50;99.90;;;;;;5076246;28;20198;-41
2022/06/20 12:05:58;;;;;;;4.93;1.80;;;21.80;99.90;;;;;;5094639;28;20175;-42
2022/06/20 12:08:46;;;;;;;5.20;1.67;;;22.00;99.90;;;;;;5094594;28;20191;-42
2022/06/20 12:11:30;;;;;;;3.37;1.40;;;22.00;99.90;;;;;;5094792;28;20151;-42
2022/06/20 12:14:24;;;;;;;3.20;1.53;;;21.90;99.90;;;;;;5076900;28;20199;-42
2022/06/20 12:17:11;;;;;;;2.97;1.23;;;21.90;99.90;;;;;;5093793;28;20260;-40
2022/06/20 12:25:39;;;;;;;3.30;1.83;;;21.80;99.90;;;;;;5094886;28;20698;-43
2022/06/20 12:28:26;;;;;;;4.03;1.80;;;21.80;99.90;;;;;;5094485;28;20612;-45
2022/06/20 12:31:12;;;;;;;3.87;1.30;;;22.20;99.90;;;;;;5094215;28;20179;-43
2022/06/20 12:33:42;;;;;;;1.77;1.30;;;22.40;99.90;;;;;;5094143;28;20151;-41
2022/06/20 12:36:18;;;;;;;3.30;1.50;;;22.40;99.90;;;;;;5094143;28;20642;-42
2022/06/20 12:39:09;;;;;;;5.13;1.60;;;22.30;99.90;;;;;;5094292;28;20198;-41
2022/06/20 12:41:40;;;;;;;4.23;1.53;;;22.40;99.90;;;;;;5093133;28;20191;-41
2022/06/20 12:44:24;;;;;;;5.20;1.57;;;22.30;99.90;;;;;;5094034;28;20623;-41
2022/06/20 12:47:08;;;;;;;5.87;1.90;;;22.30;99.90;;;;;;5094433;28;20211;-42
2022/06/20 12:50:10;;;;;;;4.00;1.47;;;22.40;99.90;;;;;;5094209;28;20193;-41
2022/06/20 12:52:51;;;;;;;2.73;1.50;;;22.80;99.90;;;;;;5093935;28;20182;-44
2022/06/20 12:55:58;;;;;;;4.23;1.20;;;23.10;99.90;;;;;;5094089;28;20159;-43
2022/06/20 12:58:41;;;;;;;4.40;1.63;;;23.00;99.90;;;;;;5080049;28;20237;-42
2022/06/20 13:01:24;;;;;;;4.37;1.20;;;22.70;99.90;;;;;;5093855;28;20568;-43
2022/06/20 13:04:18;;;;;;;2.23;1.50;;;22.40;99.90;;;;;;5093554;28;20279;-44
2022/06/20 13:07:02;;;;;;;2.60;1.70;;;22.20;99.90;;;;;;5084202;28;20673;-41
2022/06/20 13:09:39;;;;;;;3.03;1.70;;;22.20;99.90;;;;;;5093945;28;20665;-46
2022/06/20 13:12:38;;;;;;;2.90;1.20;;;22.40;99.90;;;;;;5093691;28;20276;-46
2022/06/20 13:15:37;;;;;;;2.93;1.40;;;22.70;99.90;;;;;;5094059;28;20175;-46
2022/06/20 13:18:25;;;;;;;3.30;1.30;;;22.90;99.90;;;;;;5093818;28;20208;-47
2022/06/20 13:21:03;;;;;;;4.20;1.40;;;23.10;99.90;;;;;;5094071;28;20208;-45
2022/06/20 13:23:47;;;;;;;3.90;1.60;;;23.20;99.90;;;;;;5093661;28;20230;-46
2022/06/20 13:26:29;;;;;;;2.83;1.50;;;23.30;99.90;;;;;;5093403;28;20607;-45
2022/06/20 13:29:02;;;;;;;4.50;1.77;;;23.60;99.90;;;;;;5093420;28;20577;-47
2022/06/20 13:31:39;;;;;;;4.10;1.50;;;23.60;99.90;;;;;;5093677;28;20262;-46
2022/06/20 13:34:26;;;;;;;2.30;1.47;;;23.60;99.90;;;;;;5093317;28;20166;-46
2022/06/20 13:37:12;;;;;;;4.80;1.40;;;23.50;99.90;;;;;;5093721;28;20191;-46
2022/06/20 13:39:46;;;;;;;3.43;1.30;;;23.40;99.90;;;;;;5093723;28;20199;-47
2022/06/20 13:42:23;;;;;;;2.70;1.30;;;23.40;99.90;;;;;;5093489;28;20206;-46
2022/06/20 13:44:55;;;;;;;4.33;1.37;;;23.30;99.90;;;;;;5093772;28;20163;-45
2022/06/20 13:47:32;;;;;;;2.70;1.50;;;23.30;99.90;;;;;;5093425;28;20167;-45
2022/06/20 13:50:20;;;;;;;3.10;1.50;;;23.10;99.90;;;;;;5075422;28;20273;-47
2022/06/20 13:52:57;;;;;;;3.90;1.53;;;22.70;99.90;;;;;;5093422;28;20242;-45
2022/06/20 13:55:26;;;;;;;5.80;1.60;;;22.80;99.90;;;;;;5094141;28;20167;-47
2022/06/20 13:58:18;;;;;;;5.37;1.70;;;22.80;99.90;;;;;;5093694;28;20186;-47